Clear Lake, Indiana
Current Conditions -  °F | °C
As of 3:35 PM on Saturday 25 Oct 2014 (Local Time) from KANQ Reporting Station
NA  
Wind Chill: 68°   Ceiling: NA
Heat Index: 68°   Visibility: NA
Dew Point: 46°   Wind: 12mph
Humidity: 46%   Direction: 290°WNW
Pressure: 29.84"   Gusts: NA
Location:  41.7284°N, 84.9169°W
Report Text: KANQ 251935Z AUTO 29010KT 20/08 A2984 RMK
Loading
Personal Weather Stations






























Interactive Weather Map
Tropical Storm Tracking
New forecast layout! Learn more

10-Day Weather Forecast

Advertisements
Track Severe Weather on mobile